BLY6WS EGCC-LOWS
Flight info
| Callsign | BLY6WS |
|---|---|
| Flight time | N/A |
| Altitude | 37000 |
| Route | DESIG L603 DOLAS DCT NAVPI DCT MAVAS DCT VELED DCT TORNU DCT UMUPU DCT TUSUK DCT ULNOK L607 ABUKA DCT TEDGO L607 XEBIX N871 BADVI L725 UNKEN UNKEN2R |
| Aircraft | A319/M-SDE2E3FGHIJ1RWXYZ/LB1 |
Departure
| Time | 2026-05-04 11:12 |
|---|---|
| Airport | Manchester Airport (EGCC) |
Arrival
| Time | N/A |
|---|---|
| Airport | Salzburg Airport (LOWS) |
| Time | Latitude | Longitude | Altitude | Speed | Heading |
|---|---|---|---|---|---|
| 2026-05-04 10:34 | 53.36947 | -2.28694 | 255 ft | 0 kts | 135° |
| 2026-05-04 10:54 | 53.36952 | -2.28798 | 255 ft | 0 kts | 225° |
| 2026-05-04 10:57 | 53.36932 | -2.28832 | 255 ft | 7 kts | 225° |
| 2026-05-04 10:57 | 53.36885 | -2.28909 | 255 ft | 11 kts | 225° |
| 2026-05-04 10:57 | 53.36823 | -2.29006 | 255 ft | 13 kts | 213° |
| 2026-05-04 10:57 | 53.36745 | -2.29033 | 255 ft | 11 kts | 167° |
| 2026-05-04 10:58 | 53.36690 | -2.28946 | 255 ft | 9 kts | 134° |
| 2026-05-04 10:58 | 53.36645 | -2.28899 | 255 ft | 6 kts | 168° |
| 2026-05-04 10:58 | 53.36640 | -2.28896 | 255 ft | 0 kts | 164° |
| 2026-05-04 10:59 | 53.36629 | -2.28886 | 255 ft | 4 kts | 153° |
| 2026-05-04 11:00 | 53.36605 | -2.28848 | 255 ft | 6 kts | 127° |
| 2026-05-04 11:01 | 53.36139 | -2.28122 | 255 ft | 13 kts | 134° |
| 2026-05-04 11:02 | 53.36067 | -2.28010 | 255 ft | 15 kts | 139° |
| 2026-05-04 11:02 | 53.35993 | -2.27903 | 255 ft | 13 kts | 140° |
| 2026-05-04 11:05 | 53.34793 | -2.29070 | 220 ft | 0 kts | 188° |
| 2026-05-04 11:08 | 53.34676 | -2.28941 | 219 ft | 11 kts | 66° |
| 2026-05-04 11:10 | 53.34685 | -2.28923 | 223 ft | 0 kts | 51° |
| 2026-05-04 11:12 | 53.37414 | -2.23141 | 1670 ft | 163 kts | 53° |
| 2026-05-04 11:12 | 53.38166 | -2.21519 | 1840 ft | 191 kts | 53° |
| 2026-05-04 11:12 | 53.39025 | -2.19671 | 2237 ft | 210 kts | 52° |
| 2026-05-04 11:12 | 53.39984 | -2.17654 | 2676 ft | 233 kts | 51° |
| 2026-05-04 11:13 | 53.41059 | -2.15463 | 3288 ft | 252 kts | 50° |
| 2026-05-04 11:13 | 53.42191 | -2.13155 | 4206 ft | 258 kts | 51° |
| 2026-05-04 11:13 | 53.43313 | -2.10803 | 5268 ft | 258 kts | 51° |
| 2026-05-04 11:13 | 53.44412 | -2.08448 | 6229 ft | 261 kts | 52° |
| 2026-05-04 11:14 | 53.45533 | -2.06025 | 7163 ft | 264 kts | 52° |
| 2026-05-04 11:14 | 53.46673 | -2.03545 | 7876 ft | 276 kts | 52° |
| 2026-05-04 11:14 | 53.47868 | -2.00953 | 8658 ft | 283 kts | 51° |
| 2026-05-04 11:16 | 53.50538 | -1.77940 | 13297 ft | 342 kts | 108° |
| 2026-05-04 11:16 | 53.49836 | -1.74101 | 13998 ft | 346 kts | 107° |
| 2026-05-04 11:16 | 53.49196 | -1.70187 | 14640 ft | 350 kts | 105° |
| 2026-05-04 11:17 | 53.48578 | -1.66216 | 15263 ft | 353 kts | 105° |
| 2026-05-04 11:17 | 53.47953 | -1.62208 | 15913 ft | 356 kts | 105° |
| 2026-05-04 11:19 | 53.42808 | -1.33613 | 20238 ft | 375 kts | 107° |
| 2026-05-04 11:19 | 53.42043 | -1.29423 | 20827 ft | 377 kts | 107° |
| 2026-05-04 11:19 | 53.41282 | -1.25206 | 21421 ft | 379 kts | 106° |
| 2026-05-04 11:19 | 53.40520 | -1.20964 | 21998 ft | 381 kts | 106° |
| 2026-05-04 11:20 | 53.39751 | -1.16702 | 22556 ft | 384 kts | 106° |
| 2026-05-04 11:20 | 53.38971 | -1.12410 | 23117 ft | 386 kts | 106° |
| 2026-05-04 11:20 | 53.38183 | -1.08095 | 23664 ft | 389 kts | 106° |
| 2026-05-04 11:20 | 53.37390 | -1.03742 | 24127 ft | 391 kts | 106° |
| 2026-05-04 11:22 | 53.31646 | -0.72740 | 27294 ft | 406 kts | 105° |
| 2026-05-04 11:22 | 53.30801 | -0.68227 | 27745 ft | 407 kts | 105° |
| 2026-05-04 11:23 | 53.29954 | -0.63702 | 28192 ft | 409 kts | 105° |
| 2026-05-04 11:23 | 53.29101 | -0.59157 | 28623 ft | 411 kts | 105° |
| 2026-05-04 11:24 | 53.23858 | -0.31494 | 30998 ft | 422 kts | 105° |
| 2026-05-04 11:25 | 53.22967 | -0.26815 | 31318 ft | 424 kts | 105° |
| 2026-05-04 11:25 | 53.22069 | -0.22113 | 31655 ft | 426 kts | 106° |
| 2026-05-04 11:25 | 53.21167 | -0.17414 | 32075 ft | 425 kts | 106° |
| 2026-05-04 11:26 | 53.19353 | -0.08039 | 32931 ft | 424 kts | 106° |
| 2026-05-04 11:27 | 53.12949 | 0.24835 | 35316 ft | 429 kts | 107° |
| 2026-05-04 11:28 | 53.12020 | 0.29555 | 35601 ft | 430 kts | 108° |
| 2026-05-04 11:28 | 53.11085 | 0.34293 | 35853 ft | 431 kts | 108° |
| 2026-05-04 11:28 | 53.10146 | 0.39042 | 36125 ft | 432 kts | 108° |
| 2026-05-04 11:28 | 53.09204 | 0.43794 | 36396 ft | 433 kts | 108° |
| 2026-05-04 11:29 | 53.08256 | 0.48556 | 36653 ft | 434 kts | 108° |
| 2026-05-04 11:29 | 53.07305 | 0.53323 | 36875 ft | 435 kts | 109° |
| 2026-05-04 11:29 | 53.06346 | 0.58116 | 37026 ft | 438 kts | 109° |
| 2026-05-04 11:29 | 53.05381 | 0.62930 | 37062 ft | 439 kts | 109° |
| 2026-05-04 11:33 | 52.91131 | 1.29826 | 37048 ft | 440 kts | 112° |
| 2026-05-04 11:33 | 52.88951 | 1.39366 | 37051 ft | 440 kts | 112° |
| 2026-05-04 11:34 | 52.86782 | 1.48846 | 37046 ft | 440 kts | 112° |
| 2026-05-04 11:34 | 52.84602 | 1.58317 | 37038 ft | 441 kts | 112° |
| 2026-05-04 11:35 | 52.82426 | 1.67732 | 37035 ft | 441 kts | 112° |
| 2026-05-04 11:35 | 52.80227 | 1.77205 | 37040 ft | 441 kts | 112° |
| 2026-05-04 11:36 | 52.78023 | 1.86659 | 37031 ft | 441 kts | 112° |
| 2026-05-04 11:36 | 52.75806 | 1.96101 | 37036 ft | 441 kts | 113° |
| 2026-05-04 11:37 | 52.73958 | 2.03921 | 37022 ft | 441 kts | 113° |
| 2026-05-04 11:37 | 52.71726 | 2.13357 | 37026 ft | 441 kts | 114° |
| 2026-05-04 11:38 | 52.69487 | 2.22785 | 37029 ft | 442 kts | 114° |
| 2026-05-04 11:38 | 52.67244 | 2.32210 | 37032 ft | 442 kts | 114° |
| 2026-05-04 11:39 | 52.64989 | 2.41631 | 37029 ft | 442 kts | 114° |
| 2026-05-04 11:41 | 52.57050 | 2.74458 | 37014 ft | 442 kts | 114° |
| 2026-05-04 11:41 | 52.54632 | 2.83731 | 37015 ft | 439 kts | 122° |
| 2026-05-04 11:42 | 52.51152 | 2.91900 | 37018 ft | 436 kts | 129° |
| 2026-05-04 11:42 | 52.47517 | 2.99886 | 36992 ft | 437 kts | 130° |
| 2026-05-04 11:43 | 52.43880 | 3.07882 | 36997 ft | 438 kts | 130° |
| 2026-05-04 11:43 | 52.40222 | 3.15873 | 37002 ft | 439 kts | 130° |
| 2026-05-04 11:44 | 52.36620 | 3.23871 | 37004 ft | 440 kts | 129° |
| 2026-05-04 11:44 | 52.33062 | 3.32021 | 37008 ft | 440 kts | 129° |
| 2026-05-04 11:45 | 52.29500 | 3.40159 | 37008 ft | 440 kts | 129° |
| 2026-05-04 11:45 | 52.25911 | 3.48266 | 37001 ft | 440 kts | 130° |
| 2026-05-04 11:46 | 52.22309 | 3.56360 | 36990 ft | 440 kts | 130° |
| 2026-05-04 11:46 | 52.18708 | 3.64416 | 37015 ft | 439 kts | 130° |
| 2026-05-04 11:47 | 52.15113 | 3.72441 | 37025 ft | 438 kts | 130° |
| 2026-05-04 11:47 | 52.11511 | 3.80437 | 37021 ft | 437 kts | 130° |
| 2026-05-04 11:48 | 52.07932 | 3.88358 | 37019 ft | 437 kts | 131° |
| 2026-05-04 11:48 | 52.04328 | 3.96325 | 36996 ft | 437 kts | 131° |
| 2026-05-04 11:49 | 52.00727 | 4.04284 | 36995 ft | 436 kts | 131° |
| 2026-05-04 11:49 | 51.97124 | 4.12220 | 36984 ft | 436 kts | 131° |
| 2026-05-04 11:50 | 51.93519 | 4.20122 | 37004 ft | 435 kts | 131° |
| 2026-05-04 11:50 | 51.89917 | 4.27979 | 37011 ft | 434 kts | 131° |
| 2026-05-04 11:51 | 51.86340 | 4.35765 | 37012 ft | 434 kts | 131° |
| 2026-05-04 11:51 | 51.82743 | 4.43573 | 37004 ft | 432 kts | 131° |
| 2026-05-04 11:52 | 51.79147 | 4.51354 | 36996 ft | 432 kts | 131° |
| 2026-05-04 11:52 | 51.75538 | 4.59134 | 36991 ft | 432 kts | 131° |
| 2026-05-04 11:53 | 51.71934 | 4.66885 | 36987 ft | 432 kts | 131° |
| 2026-05-04 11:53 | 51.68347 | 4.74584 | 36987 ft | 431 kts | 131° |
| 2026-05-04 11:55 | 51.53884 | 5.05390 | 36988 ft | 431 kts | 132° |
| 2026-05-04 11:56 | 51.50253 | 5.13055 | 36988 ft | 431 kts | 132° |
| 2026-05-04 11:56 | 51.46619 | 5.20707 | 36989 ft | 431 kts | 132° |
| 2026-05-04 11:57 | 51.42986 | 5.28353 | 36963 ft | 431 kts | 132° |
| 2026-05-04 11:57 | 51.39344 | 5.35988 | 36969 ft | 431 kts | 133° |
| 2026-05-04 11:58 | 51.35800 | 5.43705 | 36973 ft | 433 kts | 130° |
| 2026-05-04 11:58 | 51.32362 | 5.51627 | 36971 ft | 434 kts | 129° |
| 2026-05-04 11:59 | 51.28928 | 5.59551 | 36979 ft | 434 kts | 130° |
| 2026-05-04 11:59 | 51.25445 | 5.67429 | 36976 ft | 434 kts | 130° |
| 2026-05-04 12:00 | 51.21942 | 5.75262 | 36964 ft | 434 kts | 131° |
| 2026-05-04 12:00 | 51.18427 | 5.83095 | 36954 ft | 434 kts | 130° |
| 2026-05-04 12:01 | 51.15131 | 5.91219 | 36966 ft | 438 kts | 126° |
| 2026-05-04 12:02 | 51.04234 | 6.20345 | 36971 ft | 438 kts | 127° |
| 2026-05-04 12:03 | 51.01032 | 6.28576 | 36977 ft | 438 kts | 127° |
| 2026-05-04 12:03 | 50.97831 | 6.36835 | 36978 ft | 439 kts | 127° |
| 2026-05-04 12:04 | 50.94640 | 6.45086 | 36975 ft | 439 kts | 127° |
| 2026-05-04 12:04 | 50.91465 | 6.53280 | 36974 ft | 439 kts | 127° |
| 2026-05-04 12:05 | 50.88260 | 6.61509 | 36966 ft | 439 kts | 127° |
| 2026-05-04 12:05 | 50.85040 | 6.69723 | 36974 ft | 439 kts | 127° |
| 2026-05-04 12:06 | 50.81814 | 6.77945 | 36981 ft | 439 kts | 127° |
| 2026-05-04 12:06 | 50.78592 | 6.86149 | 36981 ft | 440 kts | 127° |
| 2026-05-04 12:07 | 50.75358 | 6.94343 | 36985 ft | 439 kts | 127° |